sensor_id;sensor_type;location;lat;lon;timestamp;P1;durP1;ratioP1;P2;durP2;ratioP2
74487;SDS011;63019;51.080;13.642;2022-10-28T00:00:07;17.43;;;7.07;;
74487;SDS011;63019;51.080;13.642;2022-10-28T00:01:10;18.65;;;7.00;;
74487;SDS011;63019;51.080;13.642;2022-10-28T00:02:12;18.83;;;7.90;;
74487;SDS011;63019;51.080;13.642;2022-10-28T00:03:14;17.05;;;7.00;;
74487;SDS011;63019;51.080;13.642;2022-10-28T00:04:16;15.85;;;7.30;;
74487;SDS011;63019;51.080;13.642;2022-10-28T00:05:17;17.60;;;7.25;;
74487;SDS011;63019;51.080;13.642;2022-10-28T00:06:21;16.00;;;6.78;;
74487;SDS011;63019;51.080;13.642;2022-10-28T00:07:24;13.63;;;6.85;;
74487;SDS011;63019;51.080;13.642;2022-10-28T00:08:27;20.58;;;6.70;;
74487;SDS011;63019;51.080;13.642;2022-10-28T00:09:29;15.75;;;7.10;;
74487;SDS011;63019;51.080;13.642;2022-10-28T00:10:31;16.47;;;7.03;;
74487;SDS011;63019;51.080;13.642;2022-10-28T00:11:33;18.73;;;7.05;;
74487;SDS011;63019;51.080;13.642;2022-10-28T00:12:36;13.77;;;6.72;;
74487;SDS011;63019;51.080;13.642;2022-10-28T00:13:38;18.75;;;7.75;;
74487;SDS011;63019;51.080;13.642;2022-10-28T00:14:41;15.55;;;7.13;;
74487;SDS011;63019;51.080;13.642;2022-10-28T00:15:42;17.77;;;7.13;;
74487;SDS011;63019;51.080;13.642;2022-10-28T00:16:44;21.92;;;7.68;;
74487;SDS011;63019;51.080;13.642;2022-10-28T00:17:45;14.55;;;6.97;;
74487;SDS011;63019;51.080;13.642;2022-10-28T00:18:47;15.50;;;7.53;;
74487;SDS011;63019;51.080;13.642;2022-10-28T00:19:50;18.98;;;7.40;;
74487;SDS011;63019;51.080;13.642;2022-10-28T00:20:52;16.50;;;7.50;;
74487;SDS011;63019;51.080;13.642;2022-10-28T00:22:03;18.20;;;7.03;;
74487;SDS011;63019;51.080;13.642;2022-10-28T00:23:05;16.48;;;7.45;;
74487;SDS011;63019;51.080;13.642;2022-10-28T00:24:07;15.55;;;6.85;;
74487;SDS011;63019;51.080;13.642;2022-10-28T00:25:10;13.73;;;6.68;;
74487;SDS011;63019;51.080;13.642;2022-10-28T00:26:13;16.77;;;7.22;;
74487;SDS011;63019;51.080;13.642;2022-10-28T00:27:16;16.50;;;7.38;;
74487;SDS011;63019;51.080;13.642;2022-10-28T00:28:18;12.68;;;6.72;;
74487;SDS011;63019;51.080;13.642;2022-10-28T00:29:20;13.23;;;6.93;;
74487;SDS011;63019;51.080;13.642;2022-10-28T00:30:21;14.35;;;7.00;;
74487;SDS011;63019;51.080;13.642;2022-10-28T00:31:24;14.53;;;6.67;;
74487;SDS011;63019;51.080;13.642;2022-10-28T00:32:27;14.25;;;6.47;;
74487;SDS011;63019;51.080;13.642;2022-10-28T00:33:30;17.25;;;7.05;;
74487;SDS011;63019;51.080;13.642;2022-10-28T00:34:32;15.40;;;7.00;;
74487;SDS011;63019;51.080;13.642;2022-10-28T00:35:33;20.63;;;7.57;;
74487;SDS011;63019;51.080;13.642;2022-10-28T00:36:36;17.55;;;7.25;;
74487;SDS011;63019;51.080;13.642;2022-10-28T00:37:39;13.55;;;6.82;;
74487;SDS011;63019;51.080;13.642;2022-10-28T00:38:41;20.83;;;7.07;;
74487;SDS011;63019;51.080;13.642;2022-10-28T00:39:44;14.75;;;7.30;;
74487;SDS011;63019;51.080;13.642;2022-10-28T00:40:45;15.73;;;7.22;;
74487;SDS011;63019;51.080;13.642;2022-10-28T00:41:54;11.97;;;6.93;;
74487;SDS011;63019;51.080;13.642;2022-10-28T00:42:58;23.20;;;7.07;;
74487;SDS011;63019;51.080;13.642;2022-10-28T00:44:00;16.33;;;7.25;;
74487;SDS011;63019;51.080;13.642;2022-10-28T00:45:22;16.25;;;6.80;;
74487;SDS011;63019;51.080;13.642;2022-10-28T00:46:34;15.88;;;6.90;;
74487;SDS011;63019;51.080;13.642;2022-10-28T00:47:57;16.27;;;7.00;;
74487;SDS011;63019;51.080;13.642;2022-10-28T00:49:08;17.10;;;7.40;;
74487;SDS011;63019;51.080;13.642;2022-10-28T00:50:22;13.57;;;6.57;;
74487;SDS011;63019;51.080;13.642;2022-10-28T00:51:26;16.17;;;6.68;;
74487;SDS011;63019;51.080;13.642;2022-10-28T00:52:31;17.95;;;7.03;;
74487;SDS011;63019;51.080;13.642;2022-10-28T00:53:33;16.90;;;7.17;;
74487;SDS011;63019;51.080;13.642;2022-10-28T00:54:36;20.13;;;7.22;;
74487;SDS011;63019;51.080;13.642;2022-10-28T00:55:38;20.65;;;7.13;;
74487;SDS011;63019;51.080;13.642;2022-10-28T00:56:42;18.60;;;7.45;;
74487;SDS011;63019;51.080;13.642;2022-10-28T00:57:46;20.27;;;6.70;;
74487;SDS011;63019;51.080;13.642;2022-10-28T00:58:48;16.15;;;7.03;;
74487;SDS011;63019;51.080;13.642;2022-10-28T00:59:51;14.05;;;7.00;;
74487;SDS011;63019;51.080;13.642;2022-10-28T01:00:54;13.80;;;6.72;;
74487;SDS011;63019;51.080;13.642;2022-10-28T01:01:56;16.85;;;7.35;;
74487;SDS011;63019;51.080;13.642;2022-10-28T01:02:58;18.67;;;7.28;;
74487;SDS011;63019;51.080;13.642;2022-10-28T01:04:00;12.83;;;7.03;;
74487;SDS011;63019;51.080;13.642;2022-10-28T01:05:03;14.43;;;6.80;;
74487;SDS011;63019;51.080;13.642;2022-10-28T01:06:05;13.57;;;6.82;;
74487;SDS011;63019;51.080;13.642;2022-10-28T01:07:07;12.98;;;6.22;;
74487;SDS011;63019;51.080;13.642;2022-10-28T01:08:10;16.55;;;6.90;;
74487;SDS011;63019;51.080;13.642;2022-10-28T01:09:12;20.60;;;7.18;;
74487;SDS011;63019;51.080;13.642;2022-10-28T01:10:14;19.83;;;7.38;;
74487;SDS011;63019;51.080;13.642;2022-10-28T01:15:37;16.00;;;6.87;;
74487;SDS011;63019;51.080;13.642;2022-10-28T01:20:24;17.60;;;7.18;;
74487;SDS011;63019;51.080;13.642;2022-10-28T01:21:56;16.08;;;7.53;;
74487;SDS011;63019;51.080;13.642;2022-10-28T01:23:17;18.48;;;7.20;;
74487;SDS011;63019;51.080;13.642;2022-10-28T01:24:46;18.73;;;7.15;;
74487;SDS011;63019;51.080;13.642;2022-10-28T01:36:39;24.50;;;7.43;;
74487;SDS011;63019;51.080;13.642;2022-10-28T01:40:43;16.15;;;6.85;;
74487;SDS011;63019;51.080;13.642;2022-10-28T01:43:28;18.25;;;7.07;;
74487;SDS011;63019;51.080;13.642;2022-10-28T01:44:40;16.60;;;7.22;;
74487;SDS011;63019;51.080;13.642;2022-10-28T01:45:50;19.42;;;7.35;;
74487;SDS011;63019;51.080;13.642;2022-10-28T01:47:03;14.13;;;7.22;;
74487;SDS011;63019;51.080;13.642;2022-10-28T01:48:17;16.42;;;7.07;;
74487;SDS011;63019;51.080;13.642;2022-10-28T01:49:24;19.50;;;7.47;;
74487;SDS011;63019;51.080;13.642;2022-10-28T01:50:56;15.27;;;7.50;;
74487;SDS011;63019;51.080;13.642;2022-10-28T01:52:04;16.38;;;7.20;;
74487;SDS011;63019;51.080;13.642;2022-10-28T01:53:15;17.02;;;7.38;;
74487;SDS011;63019;51.080;13.642;2022-10-28T01:54:23;18.47;;;7.57;;
74487;SDS011;63019;51.080;13.642;2022-10-28T01:55:37;13.75;;;7.00;;
74487;SDS011;63019;51.080;13.642;2022-10-28T01:56:42;15.75;;;7.15;;
74487;SDS011;63019;51.080;13.642;2022-10-28T01:57:46;17.23;;;7.22;;
74487;SDS011;63019;51.080;13.642;2022-10-28T01:58:51;18.40;;;6.85;;
74487;SDS011;63019;51.080;13.642;2022-10-28T01:59:55;17.38;;;7.45;;
74487;SDS011;63019;51.080;13.642;2022-10-28T02:00:58;16.38;;;7.53;;
74487;SDS011;63019;51.080;13.642;2022-10-28T02:02:01;21.60;;;7.53;;
74487;SDS011;63019;51.080;13.642;2022-10-28T02:03:08;21.25;;;7.97;;
74487;SDS011;63019;51.080;13.642;2022-10-28T02:04:10;18.50;;;8.00;;
74487;SDS011;63019;51.080;13.642;2022-10-28T02:06:40;13.45;;;7.15;;
74487;SDS011;63019;51.080;13.642;2022-10-28T02:07:44;18.67;;;7.78;;
74487;SDS011;63019;51.080;13.642;2022-10-28T02:10:15;18.00;;;8.05;;
74487;SDS011;63019;51.080;13.642;2022-10-28T02:11:27;18.88;;;7.90;;
74487;SDS011;63019;51.080;13.642;2022-10-28T02:12:43;16.00;;;7.63;;
74487;SDS011;63019;51.080;13.642;2022-10-28T02:22:10;18.42;;;8.57;;
74487;SDS011;63019;51.080;13.642;2022-10-28T02:24:45;17.85;;;7.88;;
74487;SDS011;63019;51.080;13.642;2022-10-28T02:26:16;16.30;;;7.72;;
74487;SDS011;63019;51.080;13.642;2022-10-28T02:30:05;20.70;;;8.27;;
74487;SDS011;63019;51.080;13.642;2022-10-28T02:32:18;17.45;;;8.52;;
74487;SDS011;63019;51.080;13.642;2022-10-28T02:33:24;23.80;;;8.48;;
74487;SDS011;63019;51.080;13.642;2022-10-28T02:34:30;15.85;;;7.75;;
74487;SDS011;63019;51.080;13.642;2022-10-28T02:35:41;20.00;;;8.88;;
74487;SDS011;63019;51.080;13.642;2022-10-28T02:37:05;19.60;;;8.77;;
74487;SDS011;63019;51.080;13.642;2022-10-28T02:38:13;18.70;;;8.70;;
74487;SDS011;63019;51.080;13.642;2022-10-28T02:39:20;17.83;;;8.90;;
74487;SDS011;63019;51.080;13.642;2022-10-28T02:40:26;19.23;;;8.38;;
74487;SDS011;63019;51.080;13.642;2022-10-28T02:41:35;16.27;;;8.65;;
74487;SDS011;63019;51.080;13.642;2022-10-28T02:42:42;19.37;;;8.43;;
74487;SDS011;63019;51.080;13.642;2022-10-28T02:43:49;16.27;;;8.48;;
74487;SDS011;63019;51.080;13.642;2022-10-28T02:44:57;15.20;;;8.23;;
74487;SDS011;63019;51.080;13.642;2022-10-28T02:46:01;16.02;;;8.27;;
74487;SDS011;63019;51.080;13.642;2022-10-28T02:47:06;17.88;;;8.57;;
74487;SDS011;63019;51.080;13.642;2022-10-28T02:48:18;18.63;;;9.10;;
74487;SDS011;63019;51.080;13.642;2022-10-28T02:49:29;17.20;;;8.77;;
74487;SDS011;63019;51.080;13.642;2022-10-28T02:50:37;21.25;;;8.10;;
74487;SDS011;63019;51.080;13.642;2022-10-28T02:51:52;18.23;;;8.00;;
74487;SDS011;63019;51.080;13.642;2022-10-28T02:52:58;16.67;;;8.85;;
74487;SDS011;63019;51.080;13.642;2022-10-28T02:54:04;16.87;;;9.00;;
74487;SDS011;63019;51.080;13.642;2022-10-28T02:55:12;28.17;;;9.88;;
74487;SDS011;63019;51.080;13.642;2022-10-28T02:56:14;24.08;;;8.75;;
74487;SDS011;63019;51.080;13.642;2022-10-28T02:57:18;20.42;;;8.75;;
74487;SDS011;63019;51.080;13.642;2022-10-28T02:58:24;21.13;;;9.00;;
74487;SDS011;63019;51.080;13.642;2022-10-28T02:59:27;21.00;;;9.35;;
74487;SDS011;63019;51.080;13.642;2022-10-28T03:00:29;16.75;;;8.82;;
74487;SDS011;63019;51.080;13.642;2022-10-28T03:01:31;24.00;;;9.40;;
74487;SDS011;63019;51.080;13.642;2022-10-28T03:02:33;22.30;;;9.10;;
74487;SDS011;63019;51.080;13.642;2022-10-28T03:03:35;23.67;;;9.45;;
74487;SDS011;63019;51.080;13.642;2022-10-28T03:04:36;23.17;;;8.97;;
74487;SDS011;63019;51.080;13.642;2022-10-28T03:05:38;23.70;;;9.20;;
74487;SDS011;63019;51.080;13.642;2022-10-28T03:06:40;18.60;;;9.10;;
74487;SDS011;63019;51.080;13.642;2022-10-28T03:07:41;18.67;;;9.02;;
74487;SDS011;63019;51.080;13.642;2022-10-28T03:08:43;18.52;;;8.73;;
74487;SDS011;63019;51.080;13.642;2022-10-28T03:09:45;20.65;;;8.95;;
74487;SDS011;63019;51.080;13.642;2022-10-28T03:10:46;19.50;;;9.90;;
74487;SDS011;63019;51.080;13.642;2022-10-28T03:11:48;22.30;;;9.40;;
74487;SDS011;63019;51.080;13.642;2022-10-28T03:12:49;25.63;;;9.15;;
74487;SDS011;63019;51.080;13.642;2022-10-28T03:13:51;16.17;;;8.65;;
74487;SDS011;63019;51.080;13.642;2022-10-28T03:14:53;16.57;;;8.90;;
74487;SDS011;63019;51.080;13.642;2022-10-28T03:15:54;18.60;;;9.02;;
74487;SDS011;63019;51.080;13.642;2022-10-28T03:16:56;14.13;;;8.55;;
74487;SDS011;63019;51.080;13.642;2022-10-28T03:17:58;18.25;;;9.43;;
74487;SDS011;63019;51.080;13.642;2022-10-28T03:18:59;19.92;;;9.55;;
74487;SDS011;63019;51.080;13.642;2022-10-28T03:20:01;17.15;;;8.35;;
74487;SDS011;63019;51.080;13.642;2022-10-28T03:21:03;17.67;;;8.20;;
74487;SDS011;63019;51.080;13.642;2022-10-28T03:22:05;19.48;;;9.05;;
74487;SDS011;63019;51.080;13.642;2022-10-28T03:23:06;21.73;;;8.43;;
74487;SDS011;63019;51.080;13.642;2022-10-28T03:24:08;18.63;;;9.35;;
74487;SDS011;63019;51.080;13.642;2022-10-28T03:25:10;20.43;;;9.00;;
74487;SDS011;63019;51.080;13.642;2022-10-28T03:26:11;20.27;;;9.75;;
74487;SDS011;63019;51.080;13.642;2022-10-28T03:27:13;22.52;;;9.45;;
74487;SDS011;63019;51.080;13.642;2022-10-28T03:28:15;18.25;;;9.05;;
74487;SDS011;63019;51.080;13.642;2022-10-28T03:29:16;20.75;;;9.05;;
74487;SDS011;63019;51.080;13.642;2022-10-28T03:30:18;19.10;;;9.25;;
74487;SDS011;63019;51.080;13.642;2022-10-28T03:31:20;22.80;;;9.10;;
74487;SDS011;63019;51.080;13.642;2022-10-28T03:32:21;22.48;;;9.80;;
74487;SDS011;63019;51.080;13.642;2022-10-28T03:33:23;18.42;;;9.57;;
74487;SDS011;63019;51.080;13.642;2022-10-28T03:34:25;20.13;;;8.77;;
74487;SDS011;63019;51.080;13.642;2022-10-28T03:35:27;23.07;;;9.87;;
74487;SDS011;63019;51.080;13.642;2022-10-28T03:36:28;20.00;;;10.00;;
74487;SDS011;63019;51.080;13.642;2022-10-28T03:37:30;28.33;;;9.88;;
74487;SDS011;63019;51.080;13.642;2022-10-28T03:38:31;20.88;;;9.00;;
74487;SDS011;63019;51.080;13.642;2022-10-28T03:39:33;24.20;;;9.90;;
74487;SDS011;63019;51.080;13.642;2022-10-28T03:40:35;21.10;;;9.55;;
74487;SDS011;63019;51.080;13.642;2022-10-28T03:41:37;25.48;;;10.52;;
74487;SDS011;63019;51.080;13.642;2022-10-28T03:42:39;19.77;;;9.05;;
74487;SDS011;63019;51.080;13.642;2022-10-28T03:43:41;18.20;;;9.90;;
74487;SDS011;63019;51.080;13.642;2022-10-28T03:44:43;20.73;;;9.55;;
74487;SDS011;63019;51.080;13.642;2022-10-28T03:45:46;25.00;;;9.90;;
74487;SDS011;63019;51.080;13.642;2022-10-28T03:46:48;20.20;;;9.85;;
74487;SDS011;63019;51.080;13.642;2022-10-28T03:47:49;23.05;;;10.18;;
74487;SDS011;63019;51.080;13.642;2022-10-28T03:48:52;17.77;;;9.63;;
74487;SDS011;63019;51.080;13.642;2022-10-28T03:49:53;18.88;;;9.35;;
74487;SDS011;63019;51.080;13.642;2022-10-28T03:50:55;20.70;;;10.25;;
74487;SDS011;63019;51.080;13.642;2022-10-28T03:51:57;24.58;;;10.25;;
74487;SDS011;63019;51.080;13.642;2022-10-28T03:52:59;19.70;;;9.65;;
74487;SDS011;63019;51.080;13.642;2022-10-28T03:54:00;19.25;;;9.20;;
74487;SDS011;63019;51.080;13.642;2022-10-28T03:55:02;18.05;;;9.60;;
74487;SDS011;63019;51.080;13.642;2022-10-28T03:56:04;21.60;;;9.93;;
74487;SDS011;63019;51.080;13.642;2022-10-28T03:57:06;22.30;;;10.05;;
74487;SDS011;63019;51.080;13.642;2022-10-28T03:58:08;21.05;;;9.68;;
74487;SDS011;63019;51.080;13.642;2022-10-28T03:59:10;21.85;;;9.80;;
74487;SDS011;63019;51.080;13.642;2022-10-28T04:00:15;24.10;;;10.68;;
74487;SDS011;63019;51.080;13.642;2022-10-28T04:01:17;18.30;;;9.25;;
74487;SDS011;63019;51.080;13.642;2022-10-28T04:02:19;27.73;;;10.52;;
74487;SDS011;63019;51.080;13.642;2022-10-28T04:03:21;25.60;;;10.65;;
74487;SDS011;63019;51.080;13.642;2022-10-28T04:04:23;21.63;;;10.18;;
74487;SDS011;63019;51.080;13.642;2022-10-28T04:05:30;24.02;;;10.68;;
74487;SDS011;63019;51.080;13.642;2022-10-28T04:06:32;22.90;;;10.43;;
74487;SDS011;63019;51.080;13.642;2022-10-28T04:07:34;22.08;;;10.20;;
74487;SDS011;63019;51.080;13.642;2022-10-28T04:08:36;28.00;;;10.65;;
74487;SDS011;63019;51.080;13.642;2022-10-28T04:09:38;18.65;;;9.65;;
74487;SDS011;63019;51.080;13.642;2022-10-28T04:10:39;23.52;;;10.55;;
74487;SDS011;63019;51.080;13.642;2022-10-28T04:11:47;24.05;;;10.85;;
74487;SDS011;63019;51.080;13.642;2022-10-28T04:12:51;25.42;;;10.43;;
74487;SDS011;63019;51.080;13.642;2022-10-28T04:13:54;24.67;;;10.35;;
74487;SDS011;63019;51.080;13.642;2022-10-28T04:14:55;25.33;;;11.18;;
74487;SDS011;63019;51.080;13.642;2022-10-28T04:15:57;24.88;;;9.90;;
74487;SDS011;63019;51.080;13.642;2022-10-28T04:16:59;20.53;;;10.10;;
74487;SDS011;63019;51.080;13.642;2022-10-28T04:18:01;23.50;;;10.75;;
74487;SDS011;63019;51.080;13.642;2022-10-28T04:19:02;22.17;;;10.68;;
74487;SDS011;63019;51.080;13.642;2022-10-28T04:20:04;24.90;;;10.07;;
74487;SDS011;63019;51.080;13.642;2022-10-28T04:21:07;22.38;;;10.75;;
74487;SDS011;63019;51.080;13.642;2022-10-28T04:22:08;23.25;;;10.32;;
74487;SDS011;63019;51.080;13.642;2022-10-28T04:23:14;23.60;;;11.02;;
74487;SDS011;63019;51.080;13.642;2022-10-28T04:24:18;26.33;;;10.82;;
74487;SDS011;63019;51.080;13.642;2022-10-28T04:25:20;20.88;;;10.35;;
74487;SDS011;63019;51.080;13.642;2022-10-28T04:26:22;20.70;;;10.40;;
74487;SDS011;63019;51.080;13.642;2022-10-28T04:27:24;21.77;;;10.67;;
74487;SDS011;63019;51.080;13.642;2022-10-28T04:28:26;30.27;;;11.95;;
74487;SDS011;63019;51.080;13.642;2022-10-28T04:29:28;23.48;;;10.82;;
74487;SDS011;63019;51.080;13.642;2022-10-28T04:30:29;24.20;;;11.70;;
74487;SDS011;63019;51.080;13.642;2022-10-28T04:31:31;33.53;;;12.55;;
74487;SDS011;63019;51.080;13.642;2022-10-28T04:32:33;21.75;;;11.40;;
74487;SDS011;63019;51.080;13.642;2022-10-28T04:33:34;25.77;;;11.00;;
74487;SDS011;63019;51.080;13.642;2022-10-28T04:34:36;23.30;;;10.57;;
74487;SDS011;63019;51.080;13.642;2022-10-28T04:35:38;26.63;;;11.45;;
74487;SDS011;63019;51.080;13.642;2022-10-28T04:36:42;23.27;;;11.55;;
74487;SDS011;63019;51.080;13.642;2022-10-28T04:37:44;23.97;;;11.20;;
74487;SDS011;63019;51.080;13.642;2022-10-28T04:38:46;22.10;;;10.77;;
74487;SDS011;63019;51.080;13.642;2022-10-28T04:39:47;29.30;;;11.63;;
74487;SDS011;63019;51.080;13.642;2022-10-28T04:40:49;30.35;;;11.38;;
74487;SDS011;63019;51.080;13.642;2022-10-28T04:41:51;28.00;;;11.20;;
74487;SDS011;63019;51.080;13.642;2022-10-28T04:42:53;23.70;;;11.02;;
74487;SDS011;63019;51.080;13.642;2022-10-28T04:43:55;27.52;;;11.02;;
74487;SDS011;63019;51.080;13.642;2022-10-28T04:44:57;27.63;;;11.90;;
74487;SDS011;63019;51.080;13.642;2022-10-28T04:45:58;23.33;;;11.00;;
74487;SDS011;63019;51.080;13.642;2022-10-28T04:47:05;24.30;;;10.68;;
74487;SDS011;63019;51.080;13.642;2022-10-28T04:48:07;25.83;;;11.90;;
74487;SDS011;63019;51.080;13.642;2022-10-28T04:49:10;23.90;;;11.02;;
74487;SDS011;63019;51.080;13.642;2022-10-28T04:50:12;26.15;;;11.75;;
74487;SDS011;63019;51.080;13.642;2022-10-28T04:51:14;24.38;;;11.68;;
74487;SDS011;63019;51.080;13.642;2022-10-28T04:52:15;27.77;;;11.80;;
74487;SDS011;63019;51.080;13.642;2022-10-28T04:53:17;28.50;;;11.73;;
74487;SDS011;63019;51.080;13.642;2022-10-28T04:54:19;27.25;;;11.45;;
74487;SDS011;63019;51.080;13.642;2022-10-28T04:55:21;29.00;;;11.70;;
74487;SDS011;63019;51.080;13.642;2022-10-28T04:56:22;26.95;;;11.35;;
74487;SDS011;63019;51.080;13.642;2022-10-28T04:57:24;28.17;;;12.18;;
74487;SDS011;63019;51.080;13.642;2022-10-28T04:58:26;28.53;;;11.47;;
74487;SDS011;63019;51.080;13.642;2022-10-28T04:59:27;31.23;;;11.63;;
74487;SDS011;63019;51.080;13.642;2022-10-28T05:00:29;24.13;;;11.68;;
74487;SDS011;63019;51.080;13.642;2022-10-28T05:01:31;26.67;;;11.77;;
74487;SDS011;63019;51.080;13.642;2022-10-28T05:02:33;27.60;;;12.20;;
74487;SDS011;63019;51.080;13.642;2022-10-28T05:03:35;23.20;;;11.60;;
74487;SDS011;63019;51.080;13.642;2022-10-28T05:04:36;28.48;;;12.70;;
74487;SDS011;63019;51.080;13.642;2022-10-28T05:05:38;27.15;;;11.23;;
74487;SDS011;63019;51.080;13.642;2022-10-28T05:06:40;26.20;;;12.10;;
74487;SDS011;63019;51.080;13.642;2022-10-28T05:07:42;24.65;;;11.35;;
74487;SDS011;63019;51.080;13.642;2022-10-28T05:08:44;31.00;;;12.30;;
74487;SDS011;63019;51.080;13.642;2022-10-28T05:09:46;25.42;;;12.00;;
74487;SDS011;63019;51.080;13.642;2022-10-28T05:10:48;27.08;;;11.45;;
74487;SDS011;63019;51.080;13.642;2022-10-28T05:11:51;37.15;;;12.35;;
74487;SDS011;63019;51.080;13.642;2022-10-28T05:12:52;23.52;;;12.18;;
74487;SDS011;63019;51.080;13.642;2022-10-28T05:13:54;25.33;;;11.88;;
74487;SDS011;63019;51.080;13.642;2022-10-28T05:14:56;30.45;;;12.63;;
74487;SDS011;63019;51.080;13.642;2022-10-28T05:15:57;31.10;;;12.05;;
74487;SDS011;63019;51.080;13.642;2022-10-28T05:16:59;28.30;;;11.63;;
74487;SDS011;63019;51.080;13.642;2022-10-28T05:18:01;32.70;;;12.73;;
74487;SDS011;63019;51.080;13.642;2022-10-28T05:19:03;23.77;;;11.97;;
74487;SDS011;63019;51.080;13.642;2022-10-28T05:20:04;24.85;;;11.90;;
74487;SDS011;63019;51.080;13.642;2022-10-28T05:21:07;30.40;;;12.85;;
74487;SDS011;63019;51.080;13.642;2022-10-28T05:22:09;32.97;;;12.95;;
74487;SDS011;63019;51.080;13.642;2022-10-28T05:23:11;29.23;;;12.05;;
74487;SDS011;63019;51.080;13.642;2022-10-28T05:24:13;30.42;;;12.20;;
74487;SDS011;63019;51.080;13.642;2022-10-28T05:25:15;28.83;;;12.10;;
74487;SDS011;63019;51.080;13.642;2022-10-28T05:26:17;30.08;;;11.60;;
74487;SDS011;63019;51.080;13.642;2022-10-28T05:27:19;27.10;;;11.05;;
74487;SDS011;63019;51.080;13.642;2022-10-28T05:28:21;25.45;;;11.70;;
74487;SDS011;63019;51.080;13.642;2022-10-28T05:29:22;31.67;;;12.37;;
74487;SDS011;63019;51.080;13.642;2022-10-28T05:30:25;30.83;;;13.25;;
74487;SDS011;63019;51.080;13.642;2022-10-28T05:31:27;28.73;;;11.98;;
74487;SDS011;63019;51.080;13.642;2022-10-28T05:32:28;27.48;;;12.23;;
74487;SDS011;63019;51.080;13.642;2022-10-28T05:33:30;26.73;;;11.75;;
74487;SDS011;63019;51.080;13.642;2022-10-28T05:34:33;27.02;;;11.82;;
74487;SDS011;63019;51.080;13.642;2022-10-28T05:35:36;31.95;;;12.27;;
74487;SDS011;63019;51.080;13.642;2022-10-28T05:36:38;30.05;;;12.30;;
74487;SDS011;63019;51.080;13.642;2022-10-28T05:37:40;26.55;;;12.45;;
74487;SDS011;63019;51.080;13.642;2022-10-28T05:38:42;28.50;;;12.05;;
74487;SDS011;63019;51.080;13.642;2022-10-28T05:39:45;25.33;;;12.37;;
74487;SDS011;63019;51.080;13.642;2022-10-28T05:40:47;27.80;;;11.88;;
74487;SDS011;63019;51.080;13.642;2022-10-28T05:41:49;29.30;;;12.65;;
74487;SDS011;63019;51.080;13.642;2022-10-28T05:42:50;27.83;;;12.70;;
74487;SDS011;63019;51.080;13.642;2022-10-28T05:43:53;29.63;;;12.95;;
74487;SDS011;63019;51.080;13.642;2022-10-28T05:44:54;29.88;;;12.32;;
74487;SDS011;63019;51.080;13.642;2022-10-28T05:45:56;32.80;;;13.15;;
74487;SDS011;63019;51.080;13.642;2022-10-28T05:46:58;35.88;;;12.48;;
74487;SDS011;63019;51.080;13.642;2022-10-28T05:48:00;27.48;;;12.18;;
74487;SDS011;63019;51.080;13.642;2022-10-28T05:49:02;31.00;;;12.50;;
74487;SDS011;63019;51.080;13.642;2022-10-28T05:50:04;28.37;;;12.67;;
74487;SDS011;63019;51.080;13.642;2022-10-28T05:51:06;25.73;;;11.80;;
74487;SDS011;63019;51.080;13.642;2022-10-28T05:52:08;26.00;;;11.93;;
74487;SDS011;63019;51.080;13.642;2022-10-28T05:53:09;29.65;;;12.27;;
74487;SDS011;63019;51.080;13.642;2022-10-28T05:54:11;30.05;;;12.52;;
74487;SDS011;63019;51.080;13.642;2022-10-28T05:55:13;28.15;;;11.88;;
74487;SDS011;63019;51.080;13.642;2022-10-28T05:56:18;26.48;;;12.25;;
74487;SDS011;63019;51.080;13.642;2022-10-28T05:57:20;26.98;;;12.25;;
74487;SDS011;63019;51.080;13.642;2022-10-28T05:58:22;29.77;;;12.55;;
74487;SDS011;63019;51.080;13.642;2022-10-28T05:59:23;32.10;;;12.55;;
74487;SDS011;63019;51.080;13.642;2022-10-28T06:00:25;30.57;;;11.90;;
74487;SDS011;63019;51.080;13.642;2022-10-28T06:01:27;26.25;;;12.10;;
74487;SDS011;63019;51.080;13.642;2022-10-28T06:02:29;31.50;;;12.05;;
74487;SDS011;63019;51.080;13.642;2022-10-28T06:03:31;27.70;;;12.77;;
74487;SDS011;63019;51.080;13.642;2022-10-28T06:04:33;28.48;;;12.23;;
74487;SDS011;63019;51.080;13.642;2022-10-28T06:05:43;28.58;;;12.75;;
74487;SDS011;63019;51.080;13.642;2022-10-28T06:06:46;26.58;;;12.20;;
74487;SDS011;63019;51.080;13.642;2022-10-28T06:07:47;32.50;;;12.98;;
74487;SDS011;63019;51.080;13.642;2022-10-28T06:08:49;26.27;;;12.57;;
74487;SDS011;63019;51.080;13.642;2022-10-28T06:09:51;24.58;;;11.57;;
74487;SDS011;63019;51.080;13.642;2022-10-28T06:10:53;28.97;;;12.40;;
74487;SDS011;63019;51.080;13.642;2022-10-28T06:11:58;33.90;;;13.15;;
74487;SDS011;63019;51.080;13.642;2022-10-28T06:12:59;31.63;;;12.68;;
74487;SDS011;63019;51.080;13.642;2022-10-28T06:14:01;28.27;;;12.68;;
74487;SDS011;63019;51.080;13.642;2022-10-28T06:15:03;29.77;;;13.07;;
74487;SDS011;63019;51.080;13.642;2022-10-28T06:16:05;26.92;;;12.15;;
74487;SDS011;63019;51.080;13.642;2022-10-28T06:17:07;29.75;;;12.27;;
74487;SDS011;63019;51.080;13.642;2022-10-28T06:18:09;29.73;;;12.55;;
74487;SDS011;63019;51.080;13.642;2022-10-28T06:19:10;28.98;;;13.00;;
74487;SDS011;63019;51.080;13.642;2022-10-28T06:20:12;26.38;;;11.95;;
74487;SDS011;63019;51.080;13.642;2022-10-28T06:21:14;26.63;;;12.90;;
74487;SDS011;63019;51.080;13.642;2022-10-28T06:22:16;29.23;;;12.05;;
74487;SDS011;63019;51.080;13.642;2022-10-28T06:23:18;29.17;;;12.35;;
74487;SDS011;63019;51.080;13.642;2022-10-28T06:24:19;34.20;;;12.63;;
74487;SDS011;63019;51.080;13.642;2022-10-28T06:25:21;30.02;;;12.65;;
74487;SDS011;63019;51.080;13.642;2022-10-28T06:26:24;23.10;;;11.25;;
74487;SDS011;63019;51.080;13.642;2022-10-28T06:27:25;29.98;;;12.88;;
74487;SDS011;63019;51.080;13.642;2022-10-28T06:28:27;28.05;;;11.77;;
74487;SDS011;63019;51.080;13.642;2022-10-28T06:29:30;28.98;;;11.55;;
74487;SDS011;63019;51.080;13.642;2022-10-28T06:30:32;24.23;;;11.25;;
74487;SDS011;63019;51.080;13.642;2022-10-28T06:31:34;29.07;;;11.80;;
74487;SDS011;63019;51.080;13.642;2022-10-28T06:32:38;29.45;;;11.88;;
74487;SDS011;63019;51.080;13.642;2022-10-28T06:33:40;24.45;;;11.50;;
74487;SDS011;63019;51.080;13.642;2022-10-28T06:34:41;31.55;;;11.88;;
74487;SDS011;63019;51.080;13.642;2022-10-28T06:35:43;24.05;;;11.35;;
74487;SDS011;63019;51.080;13.642;2022-10-28T06:36:45;29.88;;;11.43;;
74487;SDS011;63019;51.080;13.642;2022-10-28T06:37:47;26.92;;;10.77;;
74487;SDS011;63019;51.080;13.642;2022-10-28T06:38:51;32.97;;;11.82;;
74487;SDS011;63019;51.080;13.642;2022-10-28T06:39:53;31.05;;;11.05;;
74487;SDS011;63019;51.080;13.642;2022-10-28T06:40:58;22.58;;;10.20;;
74487;SDS011;63019;51.080;13.642;2022-10-28T06:42:00;24.13;;;10.73;;
74487;SDS011;63019;51.080;13.642;2022-10-28T06:43:02;25.50;;;11.05;;
74487;SDS011;63019;51.080;13.642;2022-10-28T06:44:06;23.25;;;10.80;;
74487;SDS011;63019;51.080;13.642;2022-10-28T06:45:08;27.45;;;11.82;;
74487;SDS011;63019;51.080;13.642;2022-10-28T06:46:09;26.30;;;11.13;;
74487;SDS011;63019;51.080;13.642;2022-10-28T06:47:11;22.70;;;10.82;;
74487;SDS011;63019;51.080;13.642;2022-10-28T06:48:13;25.25;;;11.05;;
74487;SDS011;63019;51.080;13.642;2022-10-28T06:49:15;25.40;;;11.45;;